Brasileira, Brazil
Current Conditions -  °F | °C
As of 11:00 AM on Friday 31 Oct 2014 (Local Time) from SBPB Reporting Station
Clear Clear  
Wind Chill: 93°   Ceiling: Unl
Heat Index: 101°   Visibility: 6mi
Dew Point: 72°   Wind: 22mph
Humidity: 49%   Direction: 70°ENE
Pressure: 29.85"   Gusts: NA
Location:  4.13°S, 41.78°W
Report Text: SBPB 311400Z 07019KT CAVOK 34/22 Q1011
Loading
Personal Weather Stations






























Interactive Weather Map
Tropical Storm Tracking
New forecast layout! Learn more

10-Day Weather Forecast

Advertisements
Track Severe Weather on mobile